Time;durP1;ratioP1;P1;durP2;ratioP2;P2;SDS_P1;SDS_P2;PMS_P1;PMS_P2;Temp;Humidity;BMP_temperature;BMP_pressure;BME280_temperature;BME280_humidity;BME280_pressure;Samples;Min_cycle;Max_cycle;Signal;HPM_P1;HPM_P2
2023/10/06 00:03:10;;;;;;;8.18;4.18;;;8.80;99.90;;;8.35;100.00;98297.66;5069872;28;20067;-37
2023/10/06 00:05:38;;;;;;;9.52;4.28;;;8.80;99.90;;;8.32;100.00;98302.97;5064292;28;20020;-38
2023/10/06 00:08:05;;;;;;;12.07;4.45;;;8.80;99.90;;;8.29;100.00;98303.88;5068325;28;20035;-38
2023/10/06 00:10:32;;;;;;;10.73;4.20;;;8.80;99.90;;;8.27;100.00;98310.03;5067934;28;20056;-39
2023/10/06 00:13:04;;;;;;;9.07;4.05;;;8.70;99.90;;;8.26;100.00;98316.19;5069666;28;20017;-37
2023/10/06 00:15:44;;;;;;;10.55;4.45;;;8.70;99.90;;;8.22;100.00;98307.47;5068414;28;20036;-37
2023/10/06 00:18:16;;;;;;;8.77;4.30;;;8.70;99.90;;;8.12;100.00;98298.84;5069495;28;20503;-37
2023/10/06 00:20:48;;;;;;;9.55;4.18;;;8.60;99.90;;;8.16;100.00;98312.81;5058913;28;20369;-37
2023/10/06 00:23:23;;;;;;;;;;;8.60;99.90;;;8.12;100.00;98309.34;5068689;28;20036;-39
2023/10/06 00:25:54;;;;;;;13.07;4.55;;;8.60;99.90;;;8.10;100.00;98300.63;5070476;28;20365;-38
2023/10/06 00:28:26;;;;;;;10.60;4.63;;;8.60;99.90;;;8.12;100.00;98311.97;5064356;28;20435;-37
2023/10/06 00:30:56;;;;;;;13.90;4.72;;;8.60;99.90;;;8.11;100.00;98301.47;5070790;28;20024;-38
2023/10/06 00:33:32;;;;;;;8.20;4.28;;;8.60;99.90;;;8.07;100.00;98300.66;5063476;28;20056;-37
2023/10/06 00:35:59;;;;;;;11.05;4.25;;;8.60;99.90;;;8.10;100.00;98308.50;5063655;28;20035;-37
2023/10/06 00:38:25;;;;;;;9.30;4.57;;;8.60;99.90;;;8.07;100.00;98300.66;5070238;28;20540;-38
2023/10/06 00:40:54;;;;;;;8.02;4.30;;;8.60;99.90;;;8.10;100.00;98297.13;5068849;28;20107;-37
2023/10/06 00:43:39;;;;;;;9.25;4.05;;;8.60;99.90;;;8.16;100.00;98300.53;5064707;28;20044;-37
2023/10/06 00:46:08;;;;;;;9.35;4.47;;;8.60;99.90;;;8.15;100.00;98295.31;5070088;28;20032;-38
2023/10/06 00:48:53;;;;;;;8.90;4.32;;;8.60;99.90;;;8.11;100.00;98293.59;5069019;28;20024;-37
2023/10/06 00:51:21;;;;;;;8.88;4.47;;;8.60;99.90;;;8.08;100.00;98289.25;5066580;28;20032;-37
2023/10/06 00:53:51;;;;;;;12.30;4.60;;;8.60;99.90;;;8.05;100.00;98284.03;5070382;28;20089;-37
2023/10/06 00:56:23;;;;;;;12.20;4.70;;;8.50;99.90;;;7.97;100.00;98276.25;5062155;28;20176;-37
2023/10/06 00:58:49;;;;;;;10.13;4.20;;;8.50;99.90;;;7.99;100.00;98290.25;5063762;28;20032;-39
2023/10/06 01:01:17;;;;;;;12.55;4.78;;;8.40;99.90;;;7.94;100.00;98276.28;5062518;28;20032;-38
2023/10/06 01:03:49;;;;;;;10.43;4.57;;;8.40;99.90;;;7.95;100.00;98272.78;5064278;28;20029;-37
2023/10/06 01:06:23;;;;;;;10.52;4.20;;;8.40;99.90;;;7.90;100.00;98279.84;5056045;28;20036;-37
2023/10/06 01:09:05;;;;;;;8.23;4.25;;;8.40;99.90;;;7.91;100.00;98286.81;5066658;28;20040;-38
2023/10/06 01:11:51;;;;;;;11.07;4.85;;;8.40;99.90;;;7.88;100.00;98272.84;5063961;28;20035;-37
2023/10/06 01:14:22;;;;;;;10.80;4.90;;;8.40;99.90;;;7.86;100.00;98272.91;5065082;28;20029;-37
2023/10/06 01:16:51;;;;;;;11.68;4.38;;;8.30;99.90;;;7.76;100.00;98266.00;5062189;28;20024;-38
2023/10/06 01:19:25;;;;;;;12.02;4.82;;;8.30;99.90;;;7.79;100.00;98272.09;5065152;28;20043;-37
2023/10/06 01:21:53;;;;;;;7.85;4.57;;;8.30;99.90;;;7.81;100.00;98282.59;5063660;28;20493;-40
2023/10/06 01:24:26;;;;;;;7.75;4.20;;;8.30;99.90;;;7.79;100.00;98271.25;5065284;28;20043;-38
2023/10/06 01:27:06;;;;;;;9.95;4.32;;;8.20;99.90;;;7.76;100.00;98272.13;5064701;28;20448;-38
2023/10/06 01:29:34;;;;;;;12.75;4.82;;;8.20;99.90;;;7.75;100.00;98273.03;5061702;28;20505;-38
2023/10/06 01:32:05;;;;;;;9.77;4.35;;;8.20;99.90;;;7.73;100.00;98266.91;5065497;28;20035;-38
2023/10/06 01:34:38;;;;;;;10.10;4.30;;;8.20;99.90;;;7.71;100.00;98273.94;5067639;28;20024;-38
2023/10/06 01:37:05;;;;;;;11.55;4.88;;;8.20;99.90;;;7.70;100.00;98266.97;5064261;28;20286;-38
2023/10/06 01:39:37;;;;;;;9.60;4.38;;;8.20;99.90;;;7.62;100.00;98253.03;5069340;28;20035;-37
2023/10/06 01:42:04;;;;;;;8.87;4.43;;;8.20;99.90;;;7.65;100.00;98263.50;5071227;28;20035;-37
2023/10/06 01:44:31;;;;;;;13.27;4.68;;;8.10;99.90;;;7.57;100.00;98260.97;5070766;28;20027;-37
2023/10/06 01:46:57;;;;;;;10.85;4.28;;;8.10;99.90;;;7.62;100.00;98268.78;5070951;28;20039;-38
2023/10/06 01:49:24;;;;;;;10.98;4.93;;;8.10;99.90;;;7.61;100.00;98260.06;5068669;28;20035;-38
2023/10/06 01:51:53;;;;;;;13.27;5.15;;;8.10;99.90;;;7.59;100.00;98258.31;5063209;28;20123;-38
2023/10/06 01:54:25;;;;;;;8.50;4.07;;;8.10;99.90;;;7.58;100.00;98262.72;5066383;28;20397;-37
2023/10/06 01:56:53;;;;;;;8.25;4.35;;;8.10;99.90;;;7.56;100.00;98261.84;5066857;28;20043;-38
2023/10/06 01:59:20;;;;;;;7.50;4.18;;;8.00;99.90;;;7.55;100.00;98264.50;5069545;28;20492;-38
2023/10/06 02:01:47;;;;;;;14.73;4.43;;;8.00;99.90;;;7.54;100.00;98260.16;5069301;28;20047;-37
2023/10/06 02:04:16;;;;;;;9.18;4.15;;;8.00;99.90;;;7.51;100.00;98262.78;5072030;28;20047;-37
2023/10/06 02:06:44;;;;;;;9.70;4.25;;;8.00;99.90;;;7.52;100.00;98262.78;5064066;28;20239;-38
2023/10/06 02:09:18;;;;;;;10.18;4.30;;;8.00;99.90;;;7.40;100.00;98239.28;5070555;28;20055;-39
2023/10/06 02:11:51;;;;;;;8.95;3.85;;;8.00;99.90;;;7.42;100.00;98246.25;5051798;28;20036;-37
2023/10/06 02:14:17;;;;;;;13.05;4.38;;;8.00;99.90;;;7.41;100.00;98241.91;5067299;28;20444;-37
2023/10/06 02:16:48;;;;;;;10.45;4.65;;;8.00;99.90;;;7.45;100.00;98248.84;5066386;28;20055;-37
2023/10/06 02:19:17;;;;;;;9.65;4.53;;;8.00;99.90;;;7.44;100.00;98248.88;5065188;28;20430;-37
2023/10/06 02:21:44;;;;;;;9.85;4.20;;;8.00;99.90;;;7.35;100.00;98236.69;5063912;28;20047;-37
2023/10/06 02:24:10;;;;;;;16.45;4.32;;;7.90;99.90;;;7.42;100.00;98254.13;5070761;28;20029;-37
2023/10/06 02:26:36;;;;;;;11.10;4.90;;;7.90;99.90;;;7.41;100.00;98252.41;5068669;28;20528;-38
2023/10/06 02:29:07;;;;;;;10.80;4.20;;;7.90;99.90;;;7.42;100.00;98253.25;5068207;28;20032;-37
2023/10/06 02:31:35;;;;;;;9.93;4.53;;;7.90;99.90;;;7.12;100.00;98205.44;5057405;28;20039;-37
2023/10/06 02:34:01;;;;;;;9.60;4.53;;;7.90;99.90;;;7.38;100.00;98248.94;5066958;28;20039;-37
2023/10/06 02:36:28;;;;;;;12.15;4.68;;;7.90;99.90;;;7.37;100.00;98236.69;5064244;28;20024;-37
2023/10/06 02:38:54;;;;;;;11.38;4.43;;;7.90;99.90;;;7.37;100.00;98242.81;5066518;28;20507;-39
2023/10/06 02:41:26;;;;;;;11.07;4.55;;;7.90;99.90;;;7.37;100.00;98239.31;5067682;28;20028;-40
2023/10/06 02:43:54;;;;;;;8.00;4.30;;;7.90;99.90;;;7.38;100.00;98243.69;5065591;28;20032;-38
2023/10/06 02:46:21;;;;;;;10.43;4.50;;;7.90;99.90;;;7.25;100.00;98222.81;5066988;28;20032;-38
2023/10/06 02:48:50;;;;;;;10.98;4.65;;;7.80;99.90;;;7.34;100.00;98244.59;5062911;28;20039;-37
2023/10/06 02:51:32;;;;;;;10.50;5.00;;;7.80;99.90;;;7.32;100.00;98241.13;5068757;28;20024;-38
2023/10/06 02:54:12;;;;;;;8.55;4.25;;;7.80;99.90;;;7.30;100.00;98251.63;5067895;28;22152;-37
2023/10/06 02:56:40;;;;;;;8.43;4.70;;;7.80;99.90;;;7.28;100.00;98250.78;5063474;28;20058;-38
2023/10/06 02:59:21;;;;;;;12.82;5.22;;;7.80;99.90;;;7.28;100.00;98245.53;5068969;28;20044;-37
2023/10/06 03:01:54;;;;;;;11.40;4.38;;;7.80;99.90;;;7.24;100.00;98239.44;5066320;28;20036;-38
2023/10/06 03:04:25;;;;;;;;;;;7.70;99.90;;;7.22;100.00;98245.59;5067268;28;20043;-37
2023/10/06 03:06:58;;;;;;;10.00;4.57;;;7.80;99.90;;;7.23;100.00;98249.94;5069092;28;19916;-38
2023/10/06 03:09:45;;;;;;;11.77;5.07;;;7.70;99.90;;;7.19;100.00;98237.75;5070733;28;20051;-38
2023/10/06 03:12:15;;;;;;;9.57;4.40;;;7.70;99.90;;;7.20;100.00;98236.88;5070912;28;20047;-38
2023/10/06 03:14:42;;;;;;;10.65;5.00;;;7.70;99.90;;;7.08;100.00;98222.97;5064252;28;20028;-38
2023/10/06 03:17:09;;;;;;;13.75;4.63;;;7.70;99.90;;;7.17;100.00;98242.16;5067860;28;20024;-39
2023/10/06 03:19:42;;;;;;;14.10;4.90;;;7.70;99.90;;;7.16;100.00;98245.66;5067234;28;20036;-38
2023/10/06 03:22:14;;;;;;;9.52;4.90;;;7.60;99.90;;;7.14;100.00;98255.28;5065660;28;20666;-39
2023/10/06 03:24:57;;;;;;;10.23;4.82;;;7.60;99.90;;;7.10;100.00;98241.34;5065239;28;20559;-39
2023/10/06 03:27:23;;;;;;;;;;;7.60;99.90;;;7.10;100.00;98254.44;5059589;28;20476;-37
2023/10/06 03:30:07;;;;;;;9.20;4.80;;;7.60;99.90;;;7.10;100.00;98243.94;5064286;28;19919;-38
2023/10/06 03:32:38;;;;;;;10.07;4.38;;;7.60;99.90;;;7.09;100.00;98255.34;5067261;28;20028;-38
2023/10/06 03:35:17;;;;;;;10.13;4.78;;;7.60;99.90;;;7.08;100.00;98238.72;5067811;28;20039;-38
2023/10/06 03:37:52;;;;;;;9.18;4.70;;;7.60;99.90;;;7.09;100.00;98237.00;5060442;28;20036;-38
2023/10/06 03:40:24;;;;;;;9.05;5.15;;;7.60;99.90;;;7.08;100.00;98248.34;5070926;28;20087;-38
2023/10/06 03:42:52;;;;;;;12.38;5.32;;;7.60;99.90;;;7.06;100.00;98252.75;5062684;28;20092;-38
2023/10/06 03:45:26;;;;;;;10.93;5.00;;;7.60;99.90;;;7.03;100.00;98250.13;5063639;28;20032;-37
2023/10/06 03:48:08;;;;;;;10.52;5.05;;;7.60;99.90;;;6.92;100.00;98229.25;5061040;28;20044;-39
2023/10/06 03:50:38;;;;;;;12.63;5.28;;;7.60;99.90;;;6.99;100.00;98236.19;5057479;28;20024;-38
2023/10/06 03:53:09;;;;;;;10.35;5.07;;;7.50;99.90;;;6.90;100.00;98220.53;5062283;28;20646;-38
2023/10/06 03:55:45;;;;;;;16.00;5.35;;;7.50;99.90;;;6.99;100.00;98244.06;5060979;28;20085;-38
2023/10/06 03:58:16;;;;;;;10.43;5.10;;;7.50;99.90;;;6.97;100.00;98243.19;5062557;28;20645;-38
2023/10/06 04:00:48;;;;;;;11.13;5.30;;;7.50;99.90;;;6.97;100.00;98235.34;5062894;28;20998;-38
2023/10/06 04:03:17;;;;;;;;;;;7.50;99.90;;;6.96;100.00;98237.97;5068995;28;20028;-38
2023/10/06 04:05:48;;;;;;;8.80;4.80;;;7.50;99.90;;;6.95;100.00;98226.63;5063724;28;19923;-38
2023/10/06 04:08:21;;;;;;;10.88;5.07;;;7.50;99.90;;;6.93;100.00;98236.25;5060680;28;20055;-38
2023/10/06 04:10:50;;;;;;;12.93;5.43;;;7.50;99.90;;;6.91;100.00;98222.28;5065674;28;20515;-37
2023/10/06 04:13:20;;;;;;;10.70;4.95;;;7.50;99.90;;;6.85;100.00;98210.06;5062771;28;20673;-38
2023/10/06 04:15:49;;;;;;;12.65;5.07;;;7.50;99.90;;;6.91;100.00;98222.28;5065081;28;20047;-38
2023/10/06 04:18:19;;;;;;;12.00;5.15;;;7.40;99.90;;;6.87;100.00;98215.31;5069778;28;20043;-38
2023/10/06 04:20:52;;;;;;;13.55;5.10;;;7.40;99.90;;;6.90;100.00;98220.53;5065296;28;20892;-38
2023/10/06 04:23:22;;;;;;;11.48;5.15;;;7.40;99.90;;;6.79;100.00;98212.78;5068066;28;20138;-37
2023/10/06 04:25:50;;;;;;;8.73;5.55;;;7.40;99.90;;;6.90;100.00;98230.16;5068550;28;20036;-38
2023/10/06 04:28:17;;;;;;;10.50;5.47;;;7.40;99.90;;;6.83;100.00;98217.09;5068328;28;20042;-37
2023/10/06 04:30:45;;;;;;;9.40;4.85;;;7.40;99.90;;;6.86;100.00;98224.94;5061358;28;20511;-38
2023/10/06 04:33:13;;;;;;;13.60;5.20;;;7.40;99.90;;;6.84;100.00;98221.47;5066608;28;20059;-38
2023/10/06 04:35:42;;;;;;;10.20;5.00;;;7.40;99.90;;;6.84;100.00;98220.59;5065341;28;20028;-38
2023/10/06 04:38:10;;;;;;;8.68;4.85;;;7.40;99.90;;;6.81;100.00;98220.63;5065121;28;20388;-37
2023/10/06 04:40:36;;;;;;;10.35;5.13;;;7.40;99.90;;;6.79;100.00;98211.91;5065913;28;20151;-38
2023/10/06 04:43:03;;;;;;;10.73;5.38;;;7.30;99.90;;;6.78;100.00;98215.41;5064089;28;20377;-37
2023/10/06 04:45:31;;;;;;;10.85;5.60;;;7.30;99.90;;;6.73;100.00;98204.06;5057775;28;20040;-41
2023/10/06 04:48:00;;;;;;;10.20;5.85;;;7.30;99.90;;;6.80;100.00;98205.75;5058598;28;20137;-40
2023/10/06 04:50:29;;;;;;;10.02;4.97;;;7.40;99.90;;;6.79;100.00;98210.16;5065142;28;20274;-41
2023/10/06 04:52:55;;;;;;;11.32;5.22;;;7.40;99.90;;;6.85;100.00;98210.06;5066236;28;20105;-40
2023/10/06 04:55:21;;;;;;;12.25;5.43;;;7.40;99.90;;;6.87;100.00;98221.44;5071700;28;20079;-40
2023/10/06 04:57:47;;;;;;;13.45;5.47;;;7.40;99.90;;;6.78;100.00;98205.78;5048829;28;20040;-41
2023/10/06 05:00:27;;;;;;;11.80;5.15;;;7.40;99.90;;;6.86;100.00;98217.06;5072088;28;20024;-40
2023/10/06 05:02:52;;;;;;;11.18;4.97;;;7.40;99.90;;;6.87;100.00;98220.56;5064757;28;20028;-43
2023/10/06 05:05:20;;;;;;;10.95;5.43;;;7.40;99.90;;;6.78;100.00;98199.66;5067117;28;20290;-39
2023/10/06 05:07:53;;;;;;;11.02;5.57;;;7.40;99.90;;;6.83;100.00;98209.22;5061640;28;20737;-37
2023/10/06 05:10:25;;;;;;;14.27;5.85;;;7.40;99.90;;;6.88;100.00;98202.19;5067558;28;20103;-37
2023/10/06 05:12:54;;;;;;;13.57;6.13;;;7.40;99.90;;;6.90;100.00;98201.31;5063262;28;20182;-38
2023/10/06 05:15:23;;;;;;;11.60;5.95;;;7.40;99.90;;;6.88;100.00;98196.09;5064767;28;20253;-39
2023/10/06 05:17:56;;;;;;;11.65;6.10;;;7.40;99.90;;;6.94;100.00;98206.50;5066954;28;20534;-39
2023/10/06 05:20:29;;;;;;;11.27;6.47;;;7.50;99.90;;;6.98;100.00;98195.13;5064496;28;20031;-40
2023/10/06 05:23:02;;;;;;;16.45;6.72;;;7.50;99.90;;;6.89;100.00;98192.56;5059317;28;20062;-42
2023/10/06 05:25:30;;;;;;;13.73;6.13;;;7.50;99.90;;;6.99;100.00;98204.72;5065701;28;20779;-40
2023/10/06 05:28:02;;;;;;;12.02;5.43;;;7.50;99.90;;;6.95;100.00;98203.00;5062798;28;20384;-40
2023/10/06 05:30:30;;;;;;;9.82;5.43;;;7.50;99.90;;;7.00;100.00;98214.34;5065073;28;20556;-40
2023/10/06 05:32:59;;;;;;;11.88;5.43;;;7.50;99.90;;;6.99;100.00;98212.59;5071648;28;20036;-39
2023/10/06 05:35:36;;;;;;;11.27;5.40;;;7.50;99.90;;;6.98;100.00;98218.72;5067799;28;20041;-41
2023/10/06 05:38:15;;;;;;;10.63;5.53;;;7.50;99.90;;;6.97;100.00;98232.72;5071813;28;20499;-40
2023/10/06 05:40:46;;;;;;;11.32;5.32;;;7.50;99.90;;;6.98;100.00;98233.56;5064615;28;20037;-40
2023/10/06 05:43:12;;;;;;;10.85;5.15;;;7.50;99.90;;;6.98;100.00;98234.47;5072059;28;20382;-40
2023/10/06 05:45:39;;;;;;;11.07;5.18;;;7.50;99.90;;;6.96;100.00;98233.59;5067862;28;20685;-41
2023/10/06 05:48:10;;;;;;;14.02;5.20;;;7.50;99.90;;;6.98;100.00;98233.56;5072524;28;20043;-39
2023/10/06 05:50:36;;;;;;;10.48;5.22;;;7.50;99.90;;;6.91;100.00;98222.28;5071622;28;20020;-42
2023/10/06 05:53:12;;;;;;;9.85;5.75;;;7.50;99.90;;;7.00;100.00;98237.03;5067728;28;20030;-40
2023/10/06 05:55:42;;;;;;;13.80;6.07;;;7.50;99.90;;;7.01;100.00;98250.16;5070407;28;20273;-41
2023/10/06 05:58:14;;;;;;;12.15;6.05;;;7.50;99.90;;;6.94;100.00;98237.97;5068462;28;20075;-40
2023/10/06 06:00:56;;;;;;;12.02;5.93;;;7.60;99.90;;;7.07;100.00;98250.13;5074165;28;20100;-40
2023/10/06 06:03:25;;;;;;;13.63;6.00;;;7.60;99.90;;;7.12;100.00;98251.81;5072783;28;20024;-42
2023/10/06 06:05:53;;;;;;;13.65;5.80;;;7.60;99.90;;;7.14;100.00;98242.16;5070228;28;20043;-41
2023/10/06 06:08:20;;;;;;;13.52;5.68;;;7.70;99.90;;;7.21;100.00;98247.38;5076206;28;20028;-40
2023/10/06 06:10:45;;;;;;;10.40;5.68;;;7.70;99.90;;;7.12;100.00;98225.56;5073802;28;20087;-39
2023/10/06 06:13:13;;;;;;;12.77;6.00;;;7.80;99.90;;;7.25;100.00;98245.59;5069138;28;20429;-40
2023/10/06 06:15:40;;;;;;;13.82;6.20;;;7.80;99.90;;;7.36;100.00;98246.31;5068639;28;20560;-39
2023/10/06 06:18:06;;;;;;;13.38;6.82;;;7.90;99.90;;;7.42;100.00;98251.50;5077113;28;20036;-41
2023/10/06 06:20:31;;;;;;;14.23;6.90;;;7.90;99.90;;;7.33;100.00;98230.59;5074018;28;20097;-39
2023/10/06 06:23:02;;;;;;;11.30;6.22;;;8.00;99.90;;;7.50;100.00;98254.06;5072162;28;20032;-39
2023/10/06 06:25:29;;;;;;;14.00;7.68;;;8.00;99.90;;;7.53;100.00;98251.38;5070954;28;20349;-40
2023/10/06 06:27:59;;;;;;;17.67;8.20;;;8.10;99.90;;;7.60;100.00;98250.44;5069462;28;20099;-40
2023/10/06 06:30:25;;;;;;;17.40;7.80;;;8.10;99.90;;;7.64;100.00;98256.50;5072653;28;20078;-39
2023/10/06 06:32:54;;;;;;;15.05;7.10;;;8.20;99.90;;;7.70;100.00;98266.97;5069655;28;20026;-39
2023/10/06 06:35:21;;;;;;;12.32;7.05;;;8.20;99.90;;;7.76;100.00;98271.25;5069745;28;20082;-40
2023/10/06 06:37:52;;;;;;;14.02;7.90;;;8.30;99.90;;;7.73;100.00;98260.78;5072024;28;20028;-39
2023/10/06 06:40:21;;;;;;;15.98;7.55;;;8.30;99.90;;;7.83;100.00;98271.16;5067110;28;20064;-40
2023/10/06 06:42:52;;;;;;;13.35;6.72;;;8.40;99.90;;;7.88;100.00;98264.97;5070085;28;20023;-39
2023/10/06 06:45:19;;;;;;;15.37;8.00;;;8.40;99.90;;;7.92;100.00;98262.31;5072379;28;20039;-41
2023/10/06 06:47:46;;;;;;;16.08;8.40;;;8.50;99.90;;;7.94;100.00;98263.16;5063545;28;20735;-39
2023/10/06 06:50:15;;;;;;;20.23;8.40;;;8.50;99.90;;;8.00;100.00;98270.97;5064799;28;20141;-40
2023/10/06 06:52:42;;;;;;;16.10;7.00;;;8.60;99.90;;;8.01;100.00;98258.69;5066312;28;20070;-42
2023/10/06 06:55:15;;;;;;;15.00;7.90;;;8.60;99.90;;;8.13;100.00;98262.91;5070423;28;20448;-40
2023/10/06 06:57:45;;;;;;;15.77;7.80;;;8.70;99.90;;;8.19;100.00;98260.22;5072823;28;20057;-43
2023/10/06 07:00:17;;;;;;;18.42;7.75;;;8.80;99.90;;;8.29;100.00;98266.19;5073207;28;20032;-40
2023/10/06 07:02:47;;;;;;;17.65;7.30;;;8.80;99.90;;;8.31;100.00;98262.69;5066782;28;20044;-41
2023/10/06 07:05:15;;;;;;;15.35;8.00;;;8.90;99.90;;;8.38;100.00;98266.06;5072895;28;20039;-40
2023/10/06 07:07:45;;;;;;;15.85;7.60;;;9.00;99.90;;;8.36;100.00;98257.34;5070435;28;20071;-41
2023/10/06 07:10:15;;;;;;;13.93;7.68;;;9.00;99.90;;;8.53;100.00;98263.25;5069892;28;20032;-41
2023/10/06 07:12:43;;;;;;;13.43;7.45;;;9.10;99.90;;;8.59;100.00;98263.16;5072799;28;20062;-42
2023/10/06 07:15:14;;;;;;;17.45;7.45;;;9.20;99.90;;;8.67;100.00;98256.91;5069045;28;20024;-41
2023/10/06 07:17:51;;;;;;;14.40;7.25;;;9.30;99.90;;;8.78;100.00;98255.84;5072588;28;20594;-41
2023/10/06 07:20:27;;;;;;;17.77;8.25;;;9.40;99.90;;;8.84;100.00;98257.50;5070162;28;20076;-37
2023/10/06 07:23:00;;;;;;;13.82;7.63;;;9.50;99.90;;;8.95;100.00;98262.59;5063463;28;20047;-39
2023/10/06 07:25:26;;;;;;;13.68;7.70;;;9.60;99.90;;;9.07;100.00;98269.44;5070589;28;20097;-39
2023/10/06 07:27:57;;;;;;;12.88;7.25;;;9.60;99.90;;;9.14;100.00;98266.66;5060644;28;20028;-40
2023/10/06 07:30:26;;;;;;;13.18;6.93;;;9.70;99.90;;;9.21;100.00;98250.78;5069793;28;20039;-40
2023/10/06 07:32:56;;;;;;;13.63;6.85;;;9.80;99.90;;;9.36;100.00;98267.13;5065361;28;20028;-39
2023/10/06 07:35:31;;;;;;;13.90;7.15;;;9.90;99.90;;;9.47;100.00;98271.34;5073737;28;20031;-40
2023/10/06 07:37:58;;;;;;;13.50;6.68;;;10.00;99.90;;;9.59;100.00;98280.78;5070159;28;20149;-40
2023/10/06 07:40:27;;;;;;;13.68;7.47;;;10.10;99.90;;;9.66;100.00;98280.63;5072257;28;20032;-40
2023/10/06 07:42:55;;;;;;;13.85;7.10;;;10.20;99.90;;;9.77;100.00;98276.94;5064798;28;20054;-40
2023/10/06 07:45:21;;;;;;;15.38;7.57;;;10.30;99.90;;;9.83;100.00;98272.41;5072870;28;20028;-40
2023/10/06 07:47:47;;;;;;;11.38;6.00;;;10.40;99.90;;;9.95;100.00;98273.94;5064832;28;20035;-40
2023/10/06 07:50:15;;;;;;;10.63;5.85;;;10.50;99.90;;;10.04;100.00;98279.00;5070869;28;20050;-40
2023/10/06 07:52:46;;;;;;;14.82;7.13;;;10.60;99.90;;;10.11;100.00;98270.06;5068811;28;20090;-39
2023/10/06 07:55:12;;;;;;;13.52;7.65;;;10.70;99.90;;;10.22;100.00;98269.84;5069809;28;20381;-38
2023/10/06 07:57:45;;;;;;;9.45;5.75;;;10.70;99.90;;;10.25;100.00;98258.38;5068227;28;20055;-41
2023/10/06 08:00:30;;;;;;;13.30;6.45;;;10.80;99.90;;;10.34;100.00;98257.31;5068389;28;20503;-40
2023/10/06 08:03:00;;;;;;;12.45;7.00;;;10.90;99.90;;;10.41;100.00;98261.53;5070695;28;20032;-40
2023/10/06 08:05:27;;;;;;;11.07;5.97;;;11.00;99.90;;;10.61;100.00;98279.59;5072012;28;20404;-42
2023/10/06 08:07:53;;;;;;;17.48;6.15;;;11.10;99.90;;;10.70;100.00;98279.38;5065122;28;21584;-39
2023/10/06 08:10:19;;;;;;;12.55;6.05;;;11.20;99.90;;;10.80;100.00;98274.72;5070336;28;20031;-40
2023/10/06 08:12:49;;;;;;;14.05;6.50;;;11.30;99.90;;;10.88;100.00;98271.00;5053905;28;20046;-40
2023/10/06 08:15:17;;;;;;;13.23;5.78;;;11.40;99.90;;;11.01;100.00;98274.19;5070182;28;20036;-39
2023/10/06 08:17:53;;;;;;;12.13;6.30;;;11.50;99.90;;;11.12;100.00;98265.16;5065588;28;20407;-39
2023/10/06 08:20:20;;;;;;;10.88;5.35;;;11.60;99.90;;;11.27;100.00;98268.28;5071079;28;20032;-40
2023/10/06 08:22:47;;;;;;;10.13;5.75;;;11.70;99.90;;;11.41;100.00;98267.03;5071987;28;20039;-40
2023/10/06 08:25:14;;;;;;;11.18;5.97;;;11.80;99.90;;;11.54;100.00;98267.56;5069379;28;20446;-39
2023/10/06 08:27:45;;;;;;;10.57;5.93;;;12.00;99.90;;;11.65;100.00;98266.38;5066227;28;20511;-40
2023/10/06 08:30:16;;;;;;;17.08;6.45;;;12.10;99.90;;;11.75;100.00;98266.13;5066319;28;20853;-40
2023/10/06 08:32:52;;;;;;;10.43;5.45;;;12.20;99.90;;;11.89;100.00;98266.59;5062865;28;20040;-41
2023/10/06 08:35:18;;;;;;;8.85;4.78;;;12.30;99.90;;;12.02;100.00;98273.31;5067089;28;20760;-38
2023/10/06 08:37:49;;;;;;;11.18;5.35;;;12.40;99.90;;;12.17;100.00;98272.00;5073225;28;20497;-41
2023/10/06 08:40:16;;;;;;;11.40;5.73;;;12.50;99.90;;;12.27;100.00;98269.06;5071444;28;20031;-41
2023/10/06 08:42:59;;;;;;;11.40;5.22;;;12.60;99.90;;;12.38;100.00;98273.16;5070271;28;20417;-39
2023/10/06 08:45:28;;;;;;;11.95;5.35;;;12.70;99.90;;;12.48;100.00;98280.78;5067257;28;20107;-40
2023/10/06 08:48:09;;;;;;;10.18;5.18;;;12.80;99.90;;;12.47;100.00;98271.13;5070980;28;20136;-40
2023/10/06 08:50:37;;;;;;;11.35;4.55;;;12.90;99.90;;;12.70;100.00;98283.63;5074116;28;20076;-41
2023/10/06 08:53:05;;;;;;;13.20;5.13;;;13.00;99.90;;;12.83;100.00;98281.47;5074215;28;20028;-40
2023/10/06 08:55:32;;;;;;;11.52;5.00;;;13.20;99.90;;;12.96;100.00;98275.72;5072321;28;20502;-41
2023/10/06 08:57:58;;;;;;;12.32;5.55;;;13.30;99.90;;;13.09;100.00;98276.19;5073255;28;20788;-41
2023/10/06 09:00:26;;;;;;;9.80;6.13;;;13.40;99.90;;;13.20;100.00;98274.97;5075674;28;20391;-40
2023/10/06 09:02:55;;;;;;;11.70;5.45;;;13.50;99.90;;;13.29;100.00;98272.88;5073563;28;20058;-40
2023/10/06 09:05:21;;;;;;;8.43;5.25;;;13.60;99.90;;;13.46;100.00;98280.28;5073754;28;20453;-41
2023/10/06 09:08:06;;;;;;;11.82;5.25;;;13.80;99.90;;;13.62;100.00;98269.13;5072852;28;20586;-39
2023/10/06 09:10:34;;;;;;;10.50;5.43;;;13.90;99.90;;;13.77;100.00;98273.91;5074984;28;20028;-43
2023/10/06 09:13:04;;;;;;;14.02;4.90;;;14.10;99.90;;;13.94;100.00;98276.81;5068931;28;20136;-39
2023/10/06 09:15:30;;;;;;;10.25;4.43;;;14.20;99.90;;;14.07;100.00;98273.72;5074466;28;20030;-42
2023/10/06 09:17:57;;;;;;;14.52;5.82;;;14.40;99.90;;;14.07;100.00;98266.63;5068871;28;20256;-41
2023/10/06 09:20:37;;;;;;;11.88;5.57;;;14.50;99.90;;;14.22;100.00;98278.44;5077693;28;20082;-42
2023/10/06 09:23:04;;;;;;;11.55;4.90;;;14.50;99.90;;;14.28;100.00;98280.88;5073175;28;20024;-41
2023/10/06 09:25:50;;;;;;;12.77;5.53;;;14.60;99.90;;;14.30;100.00;98270.16;5075394;28;20415;-40
2023/10/06 09:28:17;;;;;;;11.52;4.35;;;14.60;99.90;;;14.24;100.00;98270.41;5075241;28;20468;-40
2023/10/06 09:31:00;;;;;;;9.02;4.25;;;14.60;99.90;;;14.21;100.00;98255.50;5077321;28;20030;-40
2023/10/06 09:33:44;;;;;;;11.63;5.35;;;14.60;99.90;;;14.30;100.00;98267.50;5078746;28;20036;-40
2023/10/06 09:36:16;;;;;;;11.35;4.85;;;14.60;99.90;;;14.35;100.00;98262.03;5067784;28;20027;-39
2023/10/06 09:38:46;;;;;;;12.80;5.80;;;14.70;99.90;;;14.41;100.00;98257.38;5075655;28;20676;-41
2023/10/06 09:41:13;;;;;;;10.65;5.00;;;14.70;99.90;;;14.47;100.00;98264.22;5067066;28;20047;-40
2023/10/06 09:43:40;;;;;;;7.03;4.40;;;14.80;99.90;;;14.56;100.00;98255.91;5069316;28;20142;-41
2023/10/06 09:46:13;;;;;;;12.02;5.50;;;14.90;99.90;;;14.63;100.00;98249.44;5064919;28;20385;-40
2023/10/06 09:48:45;;;;;;;8.63;4.60;;;14.90;99.90;;;14.72;100.00;98250.03;5071936;28;20287;-40
2023/10/06 09:51:17;;;;;;;9.93;4.90;;;15.00;99.90;;;14.78;100.00;98252.41;5074591;28;20082;-40
2023/10/06 09:53:47;;;;;;;12.27;5.00;;;15.00;99.90;;;14.81;100.00;98247.00;5073468;28;20400;-40
2023/10/06 09:56:16;;;;;;;13.25;6.88;;;15.10;99.90;;;14.79;100.00;98247.06;5068162;28;20036;-40
2023/10/06 09:58:49;;;;;;;11.57;5.53;;;15.20;99.90;;;14.73;100.00;98233.16;5074548;28;20032;-39
2023/10/06 10:01:15;;;;;;;10.80;5.78;;;15.20;99.90;;;14.87;100.00;98244.94;5075934;28;20089;-40
2023/10/06 10:03:42;;;;;;;10.88;5.22;;;15.20;99.90;;;14.93;100.00;98233.22;5073146;28;20468;-39
2023/10/06 10:06:10;;;;;;;10.32;5.13;;;15.30;99.90;;;15.04;100.00;98238.09;5072464;28;20506;-40
2023/10/06 10:08:37;;;;;;;10.18;5.55;;;15.40;99.90;;;15.12;100.00;98228.00;5072699;28;20762;-41
2023/10/06 10:11:13;;;;;;;8.93;5.00;;;15.40;99.90;;;15.17;100.00;98233.13;5063162;28;20047;-40
2023/10/06 10:14:26;;;;;;;13.50;5.28;;;15.50;99.90;;;15.24;100.00;98239.91;5071063;28;20029;-42
2023/10/06 10:17:13;;;;;;;11.07;5.07;;;15.50;99.90;;;15.30;100.00;98241.44;5065052;28;20020;-40
2023/10/06 10:19:43;;;;;;;10.75;4.90;;;15.60;99.90;;;15.21;100.00;98226.75;5068480;28;20112;-43
2023/10/06 10:22:13;;;;;;;11.20;5.63;;;15.60;99.90;;;15.25;100.00;98230.97;5068417;28;20040;-39
2023/10/06 10:24:39;;;;;;;14.65;5.25;;;15.60;99.90;;;15.21;100.00;98229.41;5075844;28;20689;-40
2023/10/06 10:27:13;;;;;;;10.77;4.32;;;15.50;99.90;;;15.29;100.00;98243.22;5065212;28;20082;-40
2023/10/06 10:29:41;;;;;;;12.02;5.45;;;15.60;99.90;;;15.27;100.00;98231.78;5076213;28;20028;-40
2023/10/06 10:32:23;;;;;;;9.05;4.63;;;15.60;99.90;;;15.37;100.00;98234.91;5068185;28;20032;-41
2023/10/06 10:35:18;;;;;;;12.88;5.20;;;15.70;99.90;;;15.36;100.00;98231.41;5075267;28;20385;-40